Asau, Samoa

10:42 AM WSST on July 27, 2016 (GMT +1300)
Faleolo International | | Change Station

Elev 16 ft 13.83 °S, 172.01 °W | Updated 42 minutes ago

Partly Cloudy
Partly Cloudy
86 °F
Feels Like 90 °F
N
7
Wind Variable Wind from SSE

Today
High -- | Low -- °F
--% Chance of Precip.
Yesterday
High -- | Low -- °F
Precip. -- in
Pressure 29.95 in
Visibility 6.2 miles
Clouds Few 2200 ft
Heat Index 90 °F
Dew Point 70 °F
Humidity 58%
Rainfall 0.00 in
Snow Depth Not available.
6:52 AM 6:21 PM
Waning Gibbous, 51% visible
METAR NSFA 262100Z 15006KT 9999 FEW022 30/21 Q1014
Pressure 29.95 in
Visibility 6.2 miles
Clouds Few 2200 ft
Heat Index 90 °F
Dew Point 70 °F
Humidity 58%
Rainfall 0.00 in
Snow Depth Not available.
6:52 AM 6:21 PM
Waning Gibbous, 51% visible
METAR NSFA 262100Z 15006KT 9999 FEW022 30/21 Q1014

10-Day Weather Forecast

No radar image for this location.
×

Almanac

Astronomy

Jul. 27, 2016 Rise Set
Actual Time
Civil Twilight
Nautical Twilight
Astronomical Twilight
Moon
Length of Visible Light
Length of Day
Tomorrow will be .
, % of the Moon is Illuminated

Today's Extremes

Country Highs Country Lows

Community

WunderPhotos

Upload Photos

1,927,702 photos uploaded!

WunderBlog® & News

Nearby

Air Quality

  Air Quality AQ Index Pollutant
Not available.

Snow Depth

Station Depth Elevation

Earthquake Activity

City Distance Mag. Time & Date
Minimum magnitude displayed is 2.5.

Coastal Water Temperatures

Place Temperature

Stations

Nearby Weather Stations

Station Location Temp. Windchill Dew Point Humidity Wind Precip. Elev Updated Type